createdAt,value
2017-12-23T00:01:00.205Z,1027.45
2017-12-23T00:01:59.639Z,1027.41
2017-12-23T00:02:59.633Z,1027.44
2017-12-23T00:03:59.627Z,1027.43
2017-12-23T00:04:59.620Z,1027.41
2017-12-23T00:05:59.626Z,1027.39
2017-12-23T00:06:59.619Z,1027.37
2017-12-23T00:07:59.706Z,1027.35
2017-12-23T00:08:59.597Z,1027.31
2017-12-23T00:09:59.589Z,1027.32
2017-12-23T00:10:59.586Z,1027.28
2017-12-23T00:11:59.616Z,1027.31
2017-12-23T00:12:59.572Z,1027.28
2017-12-23T00:13:59.558Z,1027.25
2017-12-23T00:14:59.559Z,1027.24
2017-12-23T00:15:59.555Z,1027.20
2017-12-23T00:16:59.524Z,1027.21
2017-12-23T00:17:59.519Z,1027.16
2017-12-23T00:18:59.514Z,1027.20
2017-12-23T00:19:59.507Z,1027.17
2017-12-23T00:20:59.503Z,1027.18
2017-12-23T00:22:00.325Z,1027.20
2017-12-23T00:22:59.495Z,1027.17
2017-12-23T00:23:59.973Z,1027.19
2017-12-23T00:24:59.479Z,1027.20
2017-12-23T00:25:59.473Z,1027.17
2017-12-23T00:26:59.652Z,1027.18
2017-12-23T00:27:59.461Z,1027.20
2017-12-23T00:28:59.457Z,1027.10
2017-12-23T00:29:59.450Z,1027.14
2017-12-23T00:30:59.445Z,1027.11
2017-12-23T00:31:59.439Z,1027.07
2017-12-23T00:32:59.433Z,1027.05
2017-12-23T00:33:59.422Z,1027.03
2017-12-23T00:35:00.463Z,1027.03
2017-12-23T00:35:59.447Z,1027.01
2017-12-23T00:36:59.412Z,1027.02
2017-12-23T00:37:59.406Z,1027.01
2017-12-23T00:38:59.400Z,1026.98
2017-12-23T00:39:59.396Z,1026.98
2017-12-23T00:40:59.415Z,1026.99
2017-12-23T00:41:59.392Z,1026.97
2017-12-23T00:42:59.378Z,1026.98
2017-12-23T00:43:59.372Z,1026.98
2017-12-23T00:44:59.366Z,1026.98
2017-12-23T00:45:59.830Z,1026.99
2017-12-23T00:46:59.389Z,1027.02
2017-12-23T00:47:59.350Z,1026.97
2017-12-23T00:48:59.345Z,1026.93
2017-12-23T00:49:59.345Z,1026.89
2017-12-23T00:51:02.943Z,1026.81
2017-12-23T00:51:59.336Z,1026.79
2017-12-23T00:52:59.323Z,1026.76
2017-12-23T00:53:59.336Z,1026.75
2017-12-23T00:54:59.311Z,1026.73
2017-12-23T00:55:59.890Z,1026.72
2017-12-23T00:56:59.299Z,1026.73
2017-12-23T00:57:59.294Z,1026.71
2017-12-23T00:58:59.496Z,1026.74
2017-12-23T00:59:59.282Z,1026.72
2017-12-23T01:00:59.275Z,1026.74
2017-12-23T01:01:59.271Z,1026.71
2017-12-23T01:02:59.264Z,1026.74
2017-12-23T01:03:59.258Z,1026.72
2017-12-23T01:04:59.255Z,1026.68
2017-12-23T01:05:59.250Z,1026.67
2017-12-23T01:06:59.241Z,1026.69
2017-12-23T01:07:59.316Z,1026.66
2017-12-23T01:08:59.229Z,1026.68
2017-12-23T01:09:59.225Z,1026.72
2017-12-23T01:10:59.220Z,1026.76
2017-12-23T01:11:59.215Z,1026.78
2017-12-23T01:12:59.209Z,1026.75
2017-12-23T01:13:59.201Z,1026.81
2017-12-23T01:14:59.200Z,1026.84
2017-12-23T01:15:59.191Z,1026.83
2017-12-23T01:16:59.733Z,1026.85
2017-12-23T01:17:59.178Z,1026.91
2017-12-23T01:18:59.174Z,1026.88
2017-12-23T01:19:59.219Z,1026.93
2017-12-23T01:20:59.161Z,1026.89
2017-12-23T01:21:59.157Z,1026.86
2017-12-23T01:22:59.293Z,1026.85
2017-12-23T01:23:59.143Z,1026.83
2017-12-23T01:24:59.138Z,1026.86
2017-12-23T01:25:59.134Z,1026.84
2017-12-23T01:26:59.117Z,1026.85
2017-12-23T01:27:59.121Z,1026.86
2017-12-23T01:28:59.114Z,1026.87
2017-12-23T01:29:59.110Z,1026.91
2017-12-23T01:30:59.103Z,1026.89
2017-12-23T01:31:59.098Z,1026.90
2017-12-23T01:32:59.090Z,1026.89
2017-12-23T01:33:59.086Z,1026.88
2017-12-23T01:34:59.076Z,1026.91
2017-12-23T01:35:59.068Z,1026.92
2017-12-23T01:36:59.070Z,1026.94
2017-12-23T01:37:59.078Z,1026.91
2017-12-23T01:38:59.049Z,1026.94
2017-12-23T01:39:59.051Z,1026.95
2017-12-23T01:40:59.045Z,1026.95
2017-12-23T01:41:59.041Z,1026.96
2017-12-23T01:42:59.034Z,1026.92
2017-12-23T01:43:59.029Z,1026.90
2017-12-23T01:44:59.018Z,1026.89
2017-12-23T01:45:59.015Z,1026.88
2017-12-23T01:46:59.011Z,1026.84
2017-12-23T01:47:59.001Z,1026.80
2017-12-23T01:48:59.050Z,1026.81
2017-12-23T01:49:58.990Z,1026.81
2017-12-23T01:50:58.985Z,1026.84
2017-12-23T01:51:58.978Z,1026.87
2017-12-23T01:52:58.974Z,1026.87
2017-12-23T01:53:58.967Z,1026.83
2017-12-23T01:54:59.031Z,1026.83
2017-12-23T01:55:58.954Z,1026.82
2017-12-23T01:56:58.945Z,1026.85
2017-12-23T01:57:58.943Z,1026.80
2017-12-23T01:58:58.938Z,1026.77
2017-12-23T01:59:59.001Z,1026.81
2017-12-23T02:00:58.981Z,1026.76
2017-12-23T02:01:58.918Z,1026.79
2017-12-23T02:02:58.915Z,1026.72
2017-12-23T02:03:59.234Z,1026.72
2017-12-23T02:04:58.898Z,1026.60
2017-12-23T02:05:58.892Z,1026.61
2017-12-23T02:06:58.890Z,1026.59
2017-12-23T02:07:58.881Z,1026.58
2017-12-23T02:08:59.010Z,1026.59
2017-12-23T02:09:58.869Z,1026.59
2017-12-23T02:10:58.863Z,1026.64
2017-12-23T02:11:58.857Z,1026.56
2017-12-23T02:12:58.854Z,1026.49
2017-12-23T02:13:58.846Z,1026.44
2017-12-23T02:14:58.839Z,1026.42
2017-12-23T02:15:59.130Z,1026.32
2017-12-23T02:16:58.909Z,1026.26
2017-12-23T02:17:58.819Z,1026.33
2017-12-23T02:18:58.805Z,1026.34
2017-12-23T02:19:59.273Z,1026.35
2017-12-23T02:20:58.872Z,1026.35
2017-12-23T02:21:59.449Z,1026.33
2017-12-23T02:22:58.788Z,1026.33
2017-12-23T02:23:58.773Z,1026.37
2017-12-23T02:24:58.774Z,1026.33
2017-12-23T02:25:58.769Z,1026.33
2017-12-23T02:26:58.762Z,1026.37
2017-12-23T02:27:59.388Z,1026.27
2017-12-23T02:28:58.750Z,1026.34
2017-12-23T02:29:58.743Z,1026.32
2017-12-23T02:30:58.898Z,1026.32
2017-12-23T02:31:58.733Z,1026.30
2017-12-23T02:32:58.726Z,1026.36
2017-12-23T02:33:59.344Z,1026.35
2017-12-23T02:34:59.221Z,1026.31
2017-12-23T02:35:59.038Z,1026.28
2017-12-23T02:36:58.702Z,1026.26
2017-12-23T02:37:58.696Z,1026.26
2017-12-23T02:38:58.692Z,1026.24
2017-12-23T02:39:58.684Z,1026.26
2017-12-23T02:40:58.675Z,1026.24
2017-12-23T02:42:00.991Z,1026.28
2017-12-23T02:42:58.669Z,1026.28
2017-12-23T02:43:58.657Z,1026.25
2017-12-23T02:44:58.644Z,1026.25
2017-12-23T02:45:59.226Z,1026.29
2017-12-23T02:46:58.640Z,1026.31
2017-12-23T02:47:58.632Z,1026.36
2017-12-23T02:48:58.625Z,1026.33
2017-12-23T02:49:58.617Z,1026.35
2017-12-23T02:50:58.613Z,1026.33
2017-12-23T02:51:58.619Z,1026.33
2017-12-23T02:52:58.601Z,1026.30
2017-12-23T02:53:58.595Z,1026.35
2017-12-23T02:54:58.589Z,1026.35
2017-12-23T02:55:58.583Z,1026.33
2017-12-23T02:56:58.574Z,1026.31
2017-12-23T02:57:58.681Z,1026.32
2017-12-23T02:58:58.563Z,1026.29
2017-12-23T02:59:58.718Z,1026.25
2017-12-23T03:00:58.550Z,1026.26
2017-12-23T03:01:58.545Z,1026.23
2017-12-23T03:02:58.539Z,1026.24
2017-12-23T03:03:58.534Z,1026.24
2017-12-23T03:04:58.528Z,1026.27
2017-12-23T03:05:58.520Z,1026.24
2017-12-23T03:06:58.515Z,1026.19
2017-12-23T03:07:58.507Z,1026.19
2017-12-23T03:08:58.501Z,1026.20
2017-12-23T03:09:58.495Z,1026.22
2017-12-23T03:10:58.488Z,1026.21
2017-12-23T03:11:58.482Z,1026.19
2017-12-23T03:12:59.345Z,1026.18
2017-12-23T03:13:58.469Z,1026.17
2017-12-23T03:14:58.463Z,1026.15
2017-12-23T03:15:58.459Z,1026.19
2017-12-23T03:16:58.450Z,1026.21
2017-12-23T03:17:58.444Z,1026.24
2017-12-23T03:18:58.436Z,1026.24
2017-12-23T03:19:58.947Z,1026.23
2017-12-23T03:20:58.424Z,1026.25
2017-12-23T03:21:58.419Z,1026.25
2017-12-23T03:22:58.410Z,1026.22
2017-12-23T03:23:58.404Z,1026.21
2017-12-23T03:24:58.398Z,1026.19
2017-12-23T03:25:58.393Z,1026.18
2017-12-23T03:26:58.387Z,1026.16
2017-12-23T03:27:58.417Z,1026.17
2017-12-23T03:28:58.371Z,1026.18
2017-12-23T03:29:58.364Z,1026.22
2017-12-23T03:30:58.358Z,1026.26
2017-12-23T03:31:58.354Z,1026.27
2017-12-23T03:32:58.346Z,1026.25
2017-12-23T03:33:58.340Z,1026.22
2017-12-23T03:34:58.368Z,1026.19
2017-12-23T03:35:58.329Z,1026.19
2017-12-23T03:36:58.321Z,1026.15
2017-12-23T03:37:58.311Z,1026.13
2017-12-23T03:38:58.308Z,1026.15
2017-12-23T03:39:58.333Z,1026.14
2017-12-23T03:40:58.436Z,1026.09
2017-12-23T03:41:58.287Z,1026.05
2017-12-23T03:42:58.284Z,1026.05
2017-12-23T03:43:58.278Z,1026.06
2017-12-23T03:44:58.271Z,1026.08
2017-12-23T03:45:58.268Z,1026.10
2017-12-23T03:46:58.257Z,1026.10
2017-12-23T03:47:58.247Z,1026.10
2017-12-23T03:48:58.513Z,1026.08
2017-12-23T03:49:58.228Z,1026.08
2017-12-23T03:50:58.245Z,1026.06
2017-12-23T03:51:58.226Z,1026.06
2017-12-23T03:52:58.216Z,1026.03
2017-12-23T03:53:58.209Z,1025.99
2017-12-23T03:54:58.204Z,1025.99
2017-12-23T03:55:58.197Z,1025.93
2017-12-23T03:56:58.191Z,1025.93
2017-12-23T03:57:58.184Z,1025.91
2017-12-23T03:58:58.178Z,1025.87
2017-12-23T03:59:58.171Z,1025.85
2017-12-23T04:00:58.163Z,1025.80
2017-12-23T04:01:58.355Z,1025.79
2017-12-23T04:02:58.152Z,1025.83
2017-12-23T04:03:58.195Z,1025.80
2017-12-23T04:04:58.136Z,1025.81
2017-12-23T04:05:58.131Z,1025.80
2017-12-23T04:06:58.182Z,1025.79
2017-12-23T04:07:58.120Z,1025.79
2017-12-23T04:08:58.134Z,1025.83
2017-12-23T04:09:58.106Z,1025.81
2017-12-23T04:10:58.100Z,1025.83
2017-12-23T04:11:58.093Z,1025.75
2017-12-23T04:12:58.084Z,1025.74
2017-12-23T04:13:58.841Z,1025.73
2017-12-23T04:14:58.074Z,1025.76
2017-12-23T04:15:58.079Z,1025.77
2017-12-23T04:16:58.060Z,1025.83
2017-12-23T04:17:58.056Z,1025.81
2017-12-23T04:18:58.054Z,1025.76
2017-12-23T04:19:58.041Z,1025.80
2017-12-23T04:20:58.034Z,1025.81
2017-12-23T04:21:58.027Z,1025.82
2017-12-23T04:22:58.021Z,1025.82
2017-12-23T04:23:58.015Z,1025.83
2017-12-23T04:24:58.009Z,1025.83
2017-12-23T04:25:58.005Z,1025.83
2017-12-23T04:26:57.993Z,1025.86
2017-12-23T04:27:58.613Z,1025.86
2017-12-23T04:28:57.997Z,1025.86
2017-12-23T04:29:57.977Z,1025.83
2017-12-23T04:30:57.973Z,1025.80
2017-12-23T04:31:58.486Z,1025.73
2017-12-23T04:32:57.955Z,1025.72
2017-12-23T04:33:57.950Z,1025.69
2017-12-23T04:34:57.943Z,1025.70
2017-12-23T04:35:57.935Z,1025.72
2017-12-23T04:36:57.931Z,1025.68
2017-12-23T04:37:57.924Z,1025.72
2017-12-23T04:38:57.916Z,1025.73
2017-12-23T04:39:57.912Z,1025.74
2017-12-23T04:40:57.903Z,1025.78
2017-12-23T04:41:57.890Z,1025.77
2017-12-23T04:42:57.891Z,1025.81
2017-12-23T04:43:57.881Z,1025.82
2017-12-23T04:44:57.877Z,1025.85
2017-12-23T04:45:57.870Z,1025.86
2017-12-23T04:46:57.865Z,1025.88
2017-12-23T04:47:57.865Z,1025.91
2017-12-23T04:48:58.446Z,1025.94
2017-12-23T04:49:57.845Z,1025.93
2017-12-23T04:50:58.151Z,1025.94
2017-12-23T04:51:57.832Z,1025.95
2017-12-23T04:52:57.826Z,1025.96
2017-12-23T04:53:57.890Z,1025.95
2017-12-23T04:54:57.815Z,1025.99
2017-12-23T04:55:57.811Z,1025.98
2017-12-23T04:57:00.155Z,1025.98
2017-12-23T04:57:57.793Z,1025.99
2017-12-23T04:58:57.792Z,1026.00
2017-12-23T04:59:57.771Z,1025.94
2017-12-23T05:00:57.778Z,1025.93
2017-12-23T05:01:58.425Z,1025.93
2017-12-23T05:02:57.763Z,1025.92
2017-12-23T05:03:57.752Z,1025.88
2017-12-23T05:04:57.749Z,1025.86
2017-12-23T05:05:57.739Z,1025.84
2017-12-23T05:06:57.735Z,1025.80
2017-12-23T05:07:57.734Z,1025.81
2017-12-23T05:08:57.723Z,1025.80
2017-12-23T05:09:57.760Z,1025.78
2017-12-23T05:10:57.710Z,1025.80
2017-12-23T05:11:57.710Z,1025.79
2017-12-23T05:12:57.696Z,1025.75
2017-12-23T05:13:57.682Z,1025.79
2017-12-23T05:14:57.686Z,1025.78
2017-12-23T05:15:58.460Z,1025.78
2017-12-23T05:16:57.711Z,1025.78
2017-12-23T05:17:57.656Z,1025.83
2017-12-23T05:18:57.657Z,1025.82
2017-12-23T05:19:57.835Z,1025.85
2017-12-23T05:20:57.665Z,1025.88
2017-12-23T05:21:57.638Z,1025.90
2017-12-23T05:22:57.854Z,1025.94
2017-12-23T05:23:57.627Z,1025.93
2017-12-23T05:24:57.619Z,1025.92
2017-12-23T05:25:57.612Z,1025.93
2017-12-23T05:26:57.885Z,1025.93
2017-12-23T05:27:57.600Z,1025.88
2017-12-23T05:28:57.593Z,1025.88
2017-12-23T05:29:57.587Z,1025.87
2017-12-23T05:30:57.582Z,1025.80
2017-12-23T05:31:57.574Z,1025.82
2017-12-23T05:32:57.629Z,1025.81
2017-12-23T05:33:57.561Z,1025.81
2017-12-23T05:34:57.555Z,1025.78
2017-12-23T05:35:57.545Z,1025.83
2017-12-23T05:36:57.541Z,1025.81
2017-12-23T05:37:57.534Z,1025.82
2017-12-23T05:38:57.526Z,1025.83
2017-12-23T05:39:57.616Z,1025.83
2017-12-23T05:40:57.518Z,1025.82
2017-12-23T05:41:57.507Z,1025.84
2017-12-23T05:42:57.503Z,1025.85
2017-12-23T05:43:57.498Z,1025.84
2017-12-23T05:44:57.491Z,1025.88
2017-12-23T05:45:57.485Z,1025.88
2017-12-23T05:46:57.482Z,1025.86
2017-12-23T05:47:57.473Z,1025.88
2017-12-23T05:48:57.466Z,1025.86
2017-12-23T05:49:57.460Z,1025.81
2017-12-23T05:50:57.456Z,1025.83
2017-12-23T05:51:57.446Z,1025.82
2017-12-23T05:52:57.907Z,1025.81
2017-12-23T05:53:57.435Z,1025.80
2017-12-23T05:54:57.428Z,1025.73
2017-12-23T05:55:57.423Z,1025.74
2017-12-23T05:56:57.737Z,1025.77
2017-12-23T05:57:57.451Z,1025.76
2017-12-23T05:58:57.453Z,1025.75
2017-12-23T05:59:57.402Z,1025.75
2017-12-23T06:00:57.392Z,1025.78
2017-12-23T06:01:57.581Z,1025.77
2017-12-23T06:02:57.382Z,1025.76
2017-12-23T06:03:57.372Z,1025.75
2017-12-23T06:04:57.366Z,1025.75
2017-12-23T06:05:57.360Z,1025.80
2017-12-23T06:06:57.355Z,1025.81
2017-12-23T06:07:57.349Z,1025.77
2017-12-23T06:08:57.344Z,1025.81
2017-12-23T06:09:57.335Z,1025.76
2017-12-23T06:10:57.331Z,1025.77
2017-12-23T06:11:57.324Z,1025.77
2017-12-23T06:12:57.317Z,1025.75
2017-12-23T06:13:57.351Z,1025.72
2017-12-23T06:14:57.306Z,1025.71
2017-12-23T06:15:57.300Z,1025.69
2017-12-23T06:16:57.295Z,1025.66
2017-12-23T06:17:57.289Z,1025.63
2017-12-23T06:18:57.283Z,1025.66
2017-12-23T06:19:57.277Z,1025.64
2017-12-23T06:20:57.270Z,1025.65
2017-12-23T06:21:57.265Z,1025.69
2017-12-23T06:22:57.259Z,1025.65
2017-12-23T06:23:57.312Z,1025.65
2017-12-23T06:24:57.248Z,1025.62
2017-12-23T06:25:57.243Z,1025.59
2017-12-23T06:26:57.236Z,1025.65
2017-12-23T06:27:57.230Z,1025.62
2017-12-23T06:28:57.224Z,1025.66
2017-12-23T06:29:57.218Z,1025.66
2017-12-23T06:30:57.213Z,1025.65
2017-12-23T06:31:57.467Z,1025.62
2017-12-23T06:32:57.204Z,1025.63
2017-12-23T06:33:57.195Z,1025.67
2017-12-23T06:34:57.187Z,1025.61
2017-12-23T06:35:57.181Z,1025.62
2017-12-23T06:36:57.175Z,1025.68
2017-12-23T06:37:57.172Z,1025.58
2017-12-23T06:38:57.164Z,1025.53
2017-12-23T06:39:57.630Z,1025.51
2017-12-23T06:40:57.151Z,1025.54
2017-12-23T06:41:57.147Z,1025.49
2017-12-23T06:42:57.143Z,1025.52
2017-12-23T06:43:57.137Z,1025.52
2017-12-23T06:44:57.151Z,1025.53
2017-12-23T06:45:57.662Z,1025.48
2017-12-23T06:46:57.120Z,1025.51
2017-12-23T06:47:57.211Z,1025.54
2017-12-23T06:48:57.106Z,1025.47
2017-12-23T06:49:57.100Z,1025.45
2017-12-23T06:50:57.095Z,1025.41
2017-12-23T06:51:57.091Z,1025.39
2017-12-23T06:52:57.443Z,1025.37
2017-12-23T06:53:57.202Z,1025.41
2017-12-23T06:54:57.064Z,1025.38
2017-12-23T06:55:57.068Z,1025.40
2017-12-23T06:56:57.051Z,1025.33
2017-12-23T06:57:57.054Z,1025.34
2017-12-23T06:58:57.315Z,1025.34
2017-12-23T06:59:57.045Z,1025.34
2017-12-23T07:00:57.077Z,1025.35
2017-12-23T07:01:57.035Z,1025.37
2017-12-23T07:02:57.127Z,1025.36
2017-12-23T07:03:57.022Z,1025.34
2017-12-23T07:04:57.015Z,1025.37
2017-12-23T07:05:57.178Z,1025.41
2017-12-23T07:06:57.001Z,1025.45
2017-12-23T07:07:57.513Z,1025.46
2017-12-23T07:08:56.992Z,1025.50
2017-12-23T07:09:56.985Z,1025.48
2017-12-23T07:10:56.981Z,1025.50
2017-12-23T07:11:56.975Z,1025.52
2017-12-23T07:12:56.969Z,1025.56
2017-12-23T07:13:57.182Z,1025.59
2017-12-23T07:14:56.959Z,1025.62
2017-12-23T07:15:56.955Z,1025.64
2017-12-23T07:16:57.245Z,1025.68
2017-12-23T07:17:56.942Z,1025.69
2017-12-23T07:18:56.944Z,1025.71
2017-12-23T07:19:56.963Z,1025.64
2017-12-23T07:20:58.085Z,1025.64
2017-12-23T07:21:56.919Z,1025.65
2017-12-23T07:22:56.915Z,1025.66
2017-12-23T07:23:56.907Z,1025.68
2017-12-23T07:24:56.903Z,1025.67
2017-12-23T07:25:56.900Z,1025.70
2017-12-23T07:26:57.125Z,1025.71
2017-12-23T07:27:56.882Z,1025.72
2017-12-23T07:28:56.879Z,1025.69
2017-12-23T07:29:56.874Z,1025.68
2017-12-23T07:30:56.866Z,1025.67
2017-12-23T07:31:56.863Z,1025.65
2017-12-23T07:32:56.930Z,1025.66
2017-12-23T07:33:56.853Z,1025.69
2017-12-23T07:34:57.485Z,1025.68
2017-12-23T07:35:57.079Z,1025.73
2017-12-23T07:36:56.835Z,1025.71
2017-12-23T07:37:57.670Z,1025.73
2017-12-23T07:38:56.824Z,1025.76
2017-12-23T07:39:56.819Z,1025.75
2017-12-23T07:40:56.810Z,1025.76
2017-12-23T07:41:56.806Z,1025.75
2017-12-23T07:42:56.803Z,1025.77
2017-12-23T07:43:56.796Z,1025.77
2017-12-23T07:44:56.790Z,1025.79
2017-12-23T07:45:56.783Z,1025.80
2017-12-23T07:46:57.058Z,1025.82
2017-12-23T07:47:56.775Z,1025.85
2017-12-23T07:48:56.768Z,1025.85
2017-12-23T07:49:56.762Z,1025.81
2017-12-23T07:50:56.758Z,1025.87
2017-12-23T07:51:56.752Z,1025.86
2017-12-23T07:52:56.747Z,1025.82
2017-12-23T07:53:56.758Z,1025.84
2017-12-23T07:54:56.784Z,1025.83
2017-12-23T07:55:56.729Z,1025.85
2017-12-23T07:56:56.891Z,1025.85
2017-12-23T07:57:56.958Z,1025.88
2017-12-23T07:58:56.708Z,1025.85
2017-12-23T07:59:56.817Z,1025.87
2017-12-23T08:00:56.700Z,1025.83
2017-12-23T08:01:56.729Z,1025.81
2017-12-23T08:02:57.042Z,1025.75
2017-12-23T08:03:56.744Z,1025.78
2017-12-23T08:04:56.679Z,1025.79
2017-12-23T08:05:56.674Z,1025.78
2017-12-23T08:06:56.668Z,1025.78
2017-12-23T08:07:56.663Z,1025.80
2017-12-23T08:08:56.656Z,1025.78
2017-12-23T08:09:56.704Z,1025.75
2017-12-23T08:10:56.703Z,1025.75
2017-12-23T08:11:56.641Z,1025.73
2017-12-23T08:12:56.635Z,1025.77
2017-12-23T08:13:56.630Z,1025.72
2017-12-23T08:14:56.624Z,1025.70
2017-12-23T08:15:56.618Z,1025.70
2017-12-23T08:16:56.962Z,1025.69
2017-12-23T08:17:56.608Z,1025.65
2017-12-23T08:18:56.602Z,1025.66
2017-12-23T08:19:56.597Z,1025.68
2017-12-23T08:20:56.591Z,1025.65
2017-12-23T08:21:56.584Z,1025.62
2017-12-23T08:22:56.570Z,1025.64
2017-12-23T08:23:56.686Z,1025.68
2017-12-23T08:24:56.570Z,1025.70
2017-12-23T08:25:56.565Z,1025.70
2017-12-23T08:26:56.559Z,1025.68
2017-12-23T08:27:56.549Z,1025.69
2017-12-23T08:28:56.574Z,1025.69
2017-12-23T08:29:56.546Z,1025.65
2017-12-23T08:30:56.538Z,1025.73
2017-12-23T08:31:56.532Z,1025.69
2017-12-23T08:32:56.526Z,1025.70
2017-12-23T08:33:56.521Z,1025.73
2017-12-23T08:34:56.514Z,1025.74
2017-12-23T08:35:56.509Z,1025.73
2017-12-23T08:36:56.503Z,1025.74
2017-12-23T08:37:56.570Z,1025.76
2017-12-23T08:38:56.499Z,1025.76
2017-12-23T08:39:56.488Z,1025.79
2017-12-23T08:40:56.487Z,1025.81
2017-12-23T08:41:56.476Z,1025.77
2017-12-23T08:42:56.471Z,1025.77
2017-12-23T08:43:56.466Z,1025.77
2017-12-23T08:44:56.460Z,1025.75
2017-12-23T08:45:56.483Z,1025.75
2017-12-23T08:46:56.554Z,1025.78
2017-12-23T08:47:56.444Z,1025.80
2017-12-23T08:48:56.440Z,1025.79
2017-12-23T08:49:56.433Z,1025.82
2017-12-23T08:50:56.431Z,1025.82
2017-12-23T08:51:56.423Z,1025.82
2017-12-23T08:52:56.423Z,1025.88
2017-12-23T08:53:56.433Z,1025.87
2017-12-23T08:54:56.406Z,1025.89
2017-12-23T08:55:56.402Z,1025.87
2017-12-23T08:56:56.395Z,1025.93
2017-12-23T08:57:56.391Z,1025.91
2017-12-23T08:58:56.386Z,1025.98
2017-12-23T08:59:56.379Z,1025.91
2017-12-23T09:00:56.374Z,1025.92
2017-12-23T09:01:56.371Z,1025.90
2017-12-23T09:02:56.365Z,1025.89
2017-12-23T09:03:56.420Z,1025.91
2017-12-23T09:04:56.354Z,1025.91
2017-12-23T09:05:56.349Z,1025.85
2017-12-23T09:06:56.339Z,1025.86
2017-12-23T09:07:56.337Z,1025.87
2017-12-23T09:08:56.332Z,1025.83
2017-12-23T09:09:56.322Z,1025.82
2017-12-23T09:10:56.433Z,1025.83
2017-12-23T09:11:56.317Z,1025.83
2017-12-23T09:12:56.310Z,1025.89
2017-12-23T09:13:56.306Z,1025.91
2017-12-23T09:14:56.300Z,1025.90
2017-12-23T09:15:56.295Z,1025.90
2017-12-23T09:16:56.401Z,1025.94
2017-12-23T09:17:56.283Z,1025.93
2017-12-23T09:18:56.280Z,1025.92
2017-12-23T09:19:56.272Z,1025.96
2017-12-23T09:20:56.269Z,1025.91
2017-12-23T09:21:56.263Z,1025.96
2017-12-23T09:22:56.262Z,1025.96
2017-12-23T09:23:56.254Z,1025.91
2017-12-23T09:24:56.245Z,1025.94
2017-12-23T09:25:56.243Z,1025.93
2017-12-23T09:26:56.234Z,1025.93
2017-12-23T09:27:56.231Z,1025.95
2017-12-23T09:28:56.224Z,1025.97
2017-12-23T09:29:56.220Z,1026.00
2017-12-23T09:30:56.496Z,1026.01
2017-12-23T09:31:56.209Z,1025.98
2017-12-23T09:32:56.201Z,1026.00
2017-12-23T09:33:56.202Z,1026.03
2017-12-23T09:34:56.207Z,1026.02
2017-12-23T09:35:56.192Z,1026.03
2017-12-23T09:36:56.183Z,1025.99
2017-12-23T09:37:56.177Z,1026.03
2017-12-23T09:38:56.268Z,1026.02
2017-12-23T09:39:56.244Z,1026.00
2017-12-23T09:40:56.196Z,1025.99
2017-12-23T09:41:56.157Z,1026.00
2017-12-23T09:42:56.150Z,1025.97
2017-12-23T09:43:56.146Z,1025.99
2017-12-23T09:44:56.142Z,1025.95
2017-12-23T09:45:56.134Z,1025.98
2017-12-23T09:46:56.130Z,1026.01
2017-12-23T09:47:56.155Z,1026.03
2017-12-23T09:48:56.221Z,1026.00
2017-12-23T09:49:56.115Z,1026.02
2017-12-23T09:50:56.113Z,1025.98
2017-12-23T09:51:56.221Z,1026.00
2017-12-23T09:52:56.432Z,1026.01
2017-12-23T09:53:56.377Z,1025.98
2017-12-23T09:54:56.091Z,1026.00
2017-12-23T09:55:56.143Z,1025.96
2017-12-23T09:56:56.077Z,1025.96
2017-12-23T09:57:56.243Z,1025.96
2017-12-23T09:58:56.366Z,1026.03
2017-12-23T09:59:56.063Z,1026.02
2017-12-23T10:00:56.057Z,1026.01
2017-12-23T10:01:57.002Z,1026.02
2017-12-23T10:02:56.226Z,1025.99
2017-12-23T10:03:56.042Z,1025.98
2017-12-23T10:04:56.335Z,1026.00
2017-12-23T10:05:56.805Z,1025.99
2017-12-23T10:06:57.336Z,1025.98
2017-12-23T10:07:56.025Z,1025.97
2017-12-23T10:08:56.022Z,1025.94
2017-12-23T10:09:56.010Z,1025.96
2017-12-23T10:10:56.010Z,1025.93
2017-12-23T10:11:56.000Z,1025.89
2017-12-23T10:12:55.997Z,1025.92
2017-12-23T10:13:55.989Z,1025.93
2017-12-23T10:14:55.984Z,1025.87
2017-12-23T10:15:55.979Z,1025.88
2017-12-23T10:16:56.166Z,1025.85
2017-12-23T10:17:56.017Z,1025.86
2017-12-23T10:18:55.963Z,1025.84
2017-12-23T10:19:55.957Z,1025.87
2017-12-23T10:20:55.959Z,1025.84
2017-12-23T10:21:55.947Z,1025.83
2017-12-23T10:22:55.944Z,1025.82
2017-12-23T10:23:55.935Z,1025.83
2017-12-23T10:24:55.927Z,1025.83
2017-12-23T10:25:55.924Z,1025.79
2017-12-23T10:26:55.922Z,1025.81
2017-12-23T10:27:56.087Z,1025.82
2017-12-23T10:28:55.907Z,1025.82
2017-12-23T10:29:56.161Z,1025.77
2017-12-23T10:30:55.896Z,1025.74
2017-12-23T10:31:55.907Z,1025.75
2017-12-23T10:32:55.886Z,1025.73
2017-12-23T10:33:55.880Z,1025.71
2017-12-23T10:34:55.875Z,1025.72
2017-12-23T10:35:55.876Z,1025.70
2017-12-23T10:36:55.864Z,1025.69
2017-12-23T10:37:55.857Z,1025.68
2017-12-23T10:38:55.916Z,1025.64
2017-12-23T10:39:55.854Z,1025.61
2017-12-23T10:40:55.841Z,1025.61
2017-12-23T10:41:55.968Z,1025.59
2017-12-23T10:42:56.026Z,1025.61
2017-12-23T10:43:55.832Z,1025.64
2017-12-23T10:44:55.820Z,1025.63
2017-12-23T10:45:55.815Z,1025.63
2017-12-23T10:46:55.808Z,1025.65
2017-12-23T10:47:55.804Z,1025.62
2017-12-23T10:48:55.798Z,1025.63
2017-12-23T10:49:55.784Z,1025.64
2017-12-23T10:50:55.787Z,1025.63
2017-12-23T10:51:55.783Z,1025.62
2017-12-23T10:52:55.778Z,1025.59
2017-12-23T10:53:55.776Z,1025.60
2017-12-23T10:54:55.766Z,1025.59
2017-12-23T10:55:55.760Z,1025.54
2017-12-23T10:56:55.840Z,1025.56
2017-12-23T10:57:55.771Z,1025.48
2017-12-23T10:58:55.745Z,1025.51
2017-12-23T10:59:55.739Z,1025.51
2017-12-23T11:00:55.781Z,1025.52
2017-12-23T11:01:55.729Z,1025.51
2017-12-23T11:02:55.851Z,1025.52
2017-12-23T11:03:55.719Z,1025.52
2017-12-23T11:04:55.712Z,1025.53
2017-12-23T11:05:55.707Z,1025.54
2017-12-23T11:06:55.730Z,1025.53
2017-12-23T11:07:55.695Z,1025.57
2017-12-23T11:08:55.689Z,1025.57
2017-12-23T11:09:55.686Z,1025.62
2017-12-23T11:10:55.873Z,1025.59
2017-12-23T11:11:55.672Z,1025.60
2017-12-23T11:12:55.668Z,1025.64
2017-12-23T11:13:55.666Z,1025.61
2017-12-23T11:14:55.662Z,1025.61
2017-12-23T11:15:55.654Z,1025.62
2017-12-23T11:16:55.649Z,1025.60
2017-12-23T11:17:55.643Z,1025.59
2017-12-23T11:18:55.638Z,1025.57
2017-12-23T11:19:55.631Z,1025.56
2017-12-23T11:20:55.627Z,1025.55
2017-12-23T11:21:55.623Z,1025.54
2017-12-23T11:22:55.616Z,1025.51
2017-12-23T11:23:55.612Z,1025.49
2017-12-23T11:24:55.626Z,1025.49
2017-12-23T11:25:55.605Z,1025.48
2017-12-23T11:26:55.720Z,1025.48
2017-12-23T11:27:56.258Z,1025.48
2017-12-23T11:28:55.585Z,1025.50
2017-12-23T11:29:55.733Z,1025.49
2017-12-23T11:30:55.643Z,1025.45
2017-12-23T11:31:55.572Z,1025.46
2017-12-23T11:32:55.573Z,1025.41
2017-12-23T11:33:55.562Z,1025.46
2017-12-23T11:34:55.556Z,1025.42
2017-12-23T11:35:55.765Z,1025.44
2017-12-23T11:36:55.761Z,1025.46
2017-12-23T11:37:55.638Z,1025.45
2017-12-23T11:38:55.535Z,1025.48
2017-12-23T11:39:55.803Z,1025.45
2017-12-23T11:40:55.544Z,1025.42
2017-12-23T11:41:55.520Z,1025.42
2017-12-23T11:42:55.603Z,1025.37
2017-12-23T11:43:55.516Z,1025.37
2017-12-23T11:44:56.842Z,1025.29
2017-12-23T11:45:55.500Z,1025.28
2017-12-23T11:46:55.493Z,1025.27
2017-12-23T11:47:55.490Z,1025.28
2017-12-23T11:48:55.550Z,1025.18
2017-12-23T11:49:55.555Z,1025.20
2017-12-23T11:50:55.479Z,1025.24
2017-12-23T11:51:55.469Z,1025.23
2017-12-23T11:52:55.463Z,1025.25
2017-12-23T11:53:55.460Z,1025.25
2017-12-23T11:54:55.454Z,1025.21
2017-12-23T11:55:55.816Z,1025.24
2017-12-23T11:56:55.443Z,1025.20
2017-12-23T11:57:55.436Z,1025.22
2017-12-23T11:58:55.434Z,1025.22
2017-12-23T11:59:55.626Z,1025.23
2017-12-23T12:00:55.421Z,1025.22
2017-12-23T12:01:55.416Z,1025.18
2017-12-23T12:02:55.418Z,1025.18
2017-12-23T12:03:55.407Z,1025.19
2017-12-23T12:04:55.636Z,1025.18
2017-12-23T12:05:55.395Z,1025.13